sensor_id;sensor_type;location;lat;lon;timestamp;pressure;altitude;pressure_sealevel;temperature;humidity
38786;BME280;24535;45.508;12.252;2023-02-04T00:01:42;101904.91;;;7.11;65.00
38786;BME280;24535;45.508;12.252;2023-02-04T00:04:08;101900.66;;;7.07;65.30
38786;BME280;24535;45.508;12.252;2023-02-04T00:06:33;101910.28;;;7.06;65.25
38786;BME280;24535;45.508;12.252;2023-02-04T00:08:59;101914.56;;;7.09;65.55
38786;BME280;24535;45.508;12.252;2023-02-04T00:11:24;101911.81;;;7.13;65.95
38786;BME280;24535;45.508;12.252;2023-02-04T00:13:49;101910.94;;;7.13;65.76
38786;BME280;24535;45.508;12.252;2023-02-04T00:16:15;101915.38;;;7.11;65.63
38786;BME280;24535;45.508;12.252;2023-02-04T00:18:40;101923.31;;;7.08;65.41
38786;BME280;24535;45.508;12.252;2023-02-04T00:21:06;101912.94;;;7.05;65.53
38786;BME280;24535;45.508;12.252;2023-02-04T00:23:31;101918.34;;;7.00;65.40
38786;BME280;24535;45.508;12.252;2023-02-04T00:25:57;101933.34;;;6.95;65.33
38786;BME280;24535;45.508;12.252;2023-02-04T00:28:22;101928.06;;;6.97;66.21
38786;BME280;24535;45.508;12.252;2023-02-04T00:30:47;101918.41;;;6.99;66.50
38786;BME280;24535;45.508;12.252;2023-02-04T00:33:13;101922.81;;;6.97;65.94
38786;BME280;24535;45.508;12.252;2023-02-04T00:35:38;101927.31;;;6.93;66.27
38786;BME280;24535;45.508;12.252;2023-02-04T00:38:05;101915.13;;;6.92;66.29
38786;BME280;24535;45.508;12.252;2023-02-04T00:40:31;101903.00;;;6.89;66.38
38786;BME280;24535;45.508;12.252;2023-02-04T00:42:57;101907.47;;;6.86;66.32
38786;BME280;24535;45.508;12.252;2023-02-04T00:45:22;101906.66;;;6.84;66.40
38786;BME280;24535;45.508;12.252;2023-02-04T00:47:48;101920.59;;;6.84;66.67
38786;BME280;24535;45.508;12.252;2023-02-04T00:50:14;101898.69;;;6.87;66.54
38786;BME280;24535;45.508;12.252;2023-02-04T00:52:39;101917.97;;;6.84;66.62
38786;BME280;24535;45.508;12.252;2023-02-04T00:55:06;101919.81;;;6.82;66.28
38786;BME280;24535;45.508;12.252;2023-02-04T00:57:32;101906.81;;;6.79;66.75
38786;BME280;24535;45.508;12.252;2023-02-04T00:59:57;101900.94;;;6.73;66.54
38786;BME280;24535;45.508;12.252;2023-02-04T01:02:23;101906.09;;;6.74;66.99
38786;BME280;24535;45.508;12.252;2023-02-04T01:04:48;101895.63;;;6.74;67.07
38786;BME280;24535;45.508;12.252;2023-02-04T01:07:14;101894.06;;;6.68;66.66
38786;BME280;24535;45.508;12.252;2023-02-04T01:09:40;101891.56;;;6.65;67.16
38786;BME280;24535;45.508;12.252;2023-02-04T01:12:05;101896.81;;;6.64;67.08
38786;BME280;24535;45.508;12.252;2023-02-04T01:14:31;101888.16;;;6.62;67.20
38786;BME280;24535;45.508;12.252;2023-02-04T01:16:56;101887.25;;;6.63;67.40
38786;BME280;24535;45.508;12.252;2023-02-04T01:19:22;101899.50;;;6.62;67.15
38786;BME280;24535;45.508;12.252;2023-02-04T01:21:47;101890.72;;;6.63;67.26
38786;BME280;24535;45.508;12.252;2023-02-04T01:24:13;101907.28;;;6.64;66.88
38786;BME280;24535;45.508;12.252;2023-02-04T01:26:38;101901.19;;;6.63;67.25
38786;BME280;24535;45.508;12.252;2023-02-04T01:29:04;101887.97;;;6.68;67.07
38786;BME280;24535;45.508;12.252;2023-02-04T01:31:29;101897.72;;;6.63;66.61
38786;BME280;24535;45.508;12.252;2023-02-04T01:33:55;101910.91;;;6.60;66.77
38786;BME280;24535;45.508;12.252;2023-02-04T01:36:21;101897.81;;;6.60;67.16
38786;BME280;24535;45.508;12.252;2023-02-04T01:38:48;101897.88;;;6.58;67.26
38786;BME280;24535;45.508;12.252;2023-02-04T01:41:14;101890.03;;;6.58;66.82
38786;BME280;24535;45.508;12.252;2023-02-04T01:43:40;101891.69;;;6.61;67.18
38786;BME280;24535;45.508;12.252;2023-02-04T01:46:06;101886.63;;;6.56;66.72
38786;BME280;24535;45.508;12.252;2023-02-04T01:48:32;101896.09;;;6.60;66.71
38786;BME280;24535;45.508;12.252;2023-02-04T01:51:03;101882.16;;;6.58;66.82
38786;BME280;24535;45.508;12.252;2023-02-04T01:53:30;101895.31;;;6.57;66.78
38786;BME280;24535;45.508;12.252;2023-02-04T01:55:56;101884.84;;;6.57;66.54
38786;BME280;24535;45.508;12.252;2023-02-04T01:58:21;101882.31;;;6.54;66.25
38786;BME280;24535;45.508;12.252;2023-02-04T02:00:47;101895.44;;;6.52;66.09
38786;BME280;24535;45.508;12.252;2023-02-04T02:03:12;101898.94;;;6.53;66.41
38786;BME280;24535;45.508;12.252;2023-02-04T02:05:42;101904.03;;;6.57;67.18
38786;BME280;24535;45.508;12.252;2023-02-04T02:08:09;101909.28;;;6.56;66.49
38786;BME280;24535;45.508;12.252;2023-02-04T02:10:36;101900.59;;;6.55;66.12
38786;BME280;24535;45.508;12.252;2023-02-04T02:13:03;101905.13;;;6.50;66.01
38786;BME280;24535;45.508;12.252;2023-02-04T02:15:29;101899.94;;;6.49;66.23
38786;BME280;24535;45.508;12.252;2023-02-04T02:17:54;101888.69;;;6.45;66.19
38786;BME280;24535;45.508;12.252;2023-02-04T02:20:22;101904.44;;;6.43;66.10
38786;BME280;24535;45.508;12.252;2023-02-04T02:25:16;101892.19;;;6.44;66.41
38786;BME280;24535;45.508;12.252;2023-02-04T02:27:42;101889.88;;;6.35;65.75
38786;BME280;24535;45.508;12.252;2023-02-04T02:30:09;101909.19;;;6.31;65.84
38786;BME280;24535;45.508;12.252;2023-02-04T02:32:36;101933.66;;;6.30;66.36
38786;BME280;24535;45.508;12.252;2023-02-04T02:35:03;101886.84;;;6.21;66.34
38786;BME280;24535;45.508;12.252;2023-02-04T02:37:29;101911.47;;;6.13;66.52
38786;BME280;24535;45.508;12.252;2023-02-04T02:39:55;101909.47;;;6.22;66.90
38786;BME280;24535;45.508;12.252;2023-02-04T02:42:21;101899.00;;;6.22;66.63
38786;BME280;24535;45.508;12.252;2023-02-04T02:44:47;101910.53;;;6.16;66.47
38786;BME280;24535;45.508;12.252;2023-02-04T02:47:18;101913.78;;;6.23;66.68
38786;BME280;24535;45.508;12.252;2023-02-04T02:49:47;101882.50;;;6.19;66.77
38786;BME280;24535;45.508;12.252;2023-02-04T02:52:14;101883.47;;;6.15;66.23
38786;BME280;24535;45.508;12.252;2023-02-04T02:54:40;101895.06;;;6.08;66.21
38786;BME280;24535;45.508;12.252;2023-02-04T02:57:29;101871.59;;;6.05;66.52
38786;BME280;24535;45.508;12.252;2023-02-04T02:59:54;101876.13;;;6.00;66.45
38786;BME280;24535;45.508;12.252;2023-02-04T03:02:21;101883.19;;;5.97;66.90
38786;BME280;24535;45.508;12.252;2023-02-04T03:04:51;101873.66;;;5.94;66.88
38786;BME280;24535;45.508;12.252;2023-02-04T03:07:20;101898.09;;;5.93;67.34
38786;BME280;24535;45.508;12.252;2023-02-04T03:09:47;101896.25;;;5.97;67.66
38786;BME280;24535;45.508;12.252;2023-02-04T03:12:12;101882.41;;;5.93;66.93
38786;BME280;24535;45.508;12.252;2023-02-04T03:14:38;101892.00;;;5.91;66.86
38786;BME280;24535;45.508;12.252;2023-02-04T03:17:06;101870.31;;;5.87;67.07
38786;BME280;24535;45.508;12.252;2023-02-04T03:19:33;101875.69;;;5.83;66.96
38786;BME280;24535;45.508;12.252;2023-02-04T03:22:01;101881.97;;;5.77;66.45
38786;BME280;24535;45.508;12.252;2023-02-04T03:24:28;101879.50;;;5.71;67.16
38786;BME280;24535;45.508;12.252;2023-02-04T03:26:54;101877.78;;;5.72;67.38
38786;BME280;24535;45.508;12.252;2023-02-04T03:29:20;101884.00;;;5.66;67.41
38786;BME280;24535;45.508;12.252;2023-02-04T03:31:46;101870.00;;;5.68;67.64
38786;BME280;24535;45.508;12.252;2023-02-04T03:34:11;101882.22;;;5.68;67.56
38786;BME280;24535;45.508;12.252;2023-02-04T03:36:37;101861.44;;;5.63;67.43
38786;BME280;24535;45.508;12.252;2023-02-04T03:39:03;101856.31;;;5.60;67.24
38786;BME280;24535;45.508;12.252;2023-02-04T03:41:29;101871.78;;;5.68;68.23
38786;BME280;24535;45.508;12.252;2023-02-04T03:43:54;101870.88;;;5.69;68.26
38786;BME280;24535;45.508;12.252;2023-02-04T03:46:20;101858.78;;;5.65;67.75
38786;BME280;24535;45.508;12.252;2023-02-04T03:48:48;101873.63;;;5.64;68.05
38786;BME280;24535;45.508;12.252;2023-02-04T03:51:14;101878.78;;;5.66;68.45
38786;BME280;24535;45.508;12.252;2023-02-04T03:53:39;101869.16;;;5.68;68.71
38786;BME280;24535;45.508;12.252;2023-02-04T03:56:05;101895.19;;;5.71;68.55
38786;BME280;24535;45.508;12.252;2023-02-04T03:58:30;101887.06;;;5.82;68.79
38786;BME280;24535;45.508;12.252;2023-02-04T04:00:56;101883.53;;;5.83;68.56
38786;BME280;24535;45.508;12.252;2023-02-04T04:03:22;101880.84;;;5.86;68.58
38786;BME280;24535;45.508;12.252;2023-02-04T04:05:47;101899.19;;;5.84;67.91
38786;BME280;24535;45.508;12.252;2023-02-04T04:08:13;101899.34;;;5.80;67.03
38786;BME280;24535;45.508;12.252;2023-02-04T04:10:38;101895.84;;;5.79;68.01
38786;BME280;24535;45.508;12.252;2023-02-04T04:13:03;101908.69;;;5.87;68.44
38786;BME280;24535;45.508;12.252;2023-02-04T04:15:30;101907.91;;;5.85;68.34
38786;BME280;24535;45.508;12.252;2023-02-04T04:17:56;101904.38;;;5.86;67.56
38786;BME280;24535;45.508;12.252;2023-02-04T04:20:21;101921.66;;;5.91;68.38
38786;BME280;24535;45.508;12.252;2023-02-04T04:22:52;101915.50;;;5.94;67.70
38786;BME280;24535;45.508;12.252;2023-02-04T04:25:18;101913.81;;;5.91;67.21
38786;BME280;24535;45.508;12.252;2023-02-04T04:27:44;101919.94;;;5.92;67.46
38786;BME280;24535;45.508;12.252;2023-02-04T04:30:10;101907.56;;;5.97;66.85
38786;BME280;24535;45.508;12.252;2023-02-04T04:32:35;101905.94;;;5.93;66.81
38786;BME280;24535;45.508;12.252;2023-02-04T04:35:01;101898.97;;;5.93;67.09
38786;BME280;24535;45.508;12.252;2023-02-04T04:37:27;101891.25;;;5.87;66.74
38786;BME280;24535;45.508;12.252;2023-02-04T04:39:53;101891.22;;;5.89;66.75
38786;BME280;24535;45.508;12.252;2023-02-04T04:42:18;101889.50;;;5.88;67.13
38786;BME280;24535;45.508;12.252;2023-02-04T04:44:44;101905.94;;;5.93;66.23
38786;BME280;24535;45.508;12.252;2023-02-04T04:47:09;101910.28;;;5.94;66.56
38786;BME280;24535;45.508;12.252;2023-02-04T04:49:35;101903.38;;;5.90;66.13
38786;BME280;24535;45.508;12.252;2023-02-04T04:52:00;101905.09;;;5.91;66.59
38786;BME280;24535;45.508;12.252;2023-02-04T04:54:25;101899.22;;;5.83;66.42
38786;BME280;24535;45.508;12.252;2023-02-04T04:56:51;101900.19;;;5.80;66.58
38786;BME280;24535;45.508;12.252;2023-02-04T04:59:16;101909.72;;;5.81;66.54
38786;BME280;24535;45.508;12.252;2023-02-04T05:01:42;101897.50;;;5.82;66.43
38786;BME280;24535;45.508;12.252;2023-02-04T05:04:07;101913.16;;;5.83;66.88
38786;BME280;24535;45.508;12.252;2023-02-04T05:06:33;101918.28;;;5.88;66.51
38786;BME280;24535;45.508;12.252;2023-02-04T05:08:58;101900.84;;;5.87;66.72
38786;BME280;24535;45.508;12.252;2023-02-04T05:11:24;101905.28;;;5.85;66.23
38786;BME280;24535;45.508;12.252;2023-02-04T05:13:49;101906.91;;;5.89;66.80
38786;BME280;24535;45.508;12.252;2023-02-04T05:16:15;101902.59;;;5.88;66.63
38786;BME280;24535;45.508;12.252;2023-02-04T05:18:41;101910.44;;;5.88;66.10
38786;BME280;24535;45.508;12.252;2023-02-04T05:21:07;101902.53;;;5.89;66.49
38786;BME280;24535;45.508;12.252;2023-02-04T05:23:32;101904.25;;;5.92;66.78
38786;BME280;24535;45.508;12.252;2023-02-04T05:25:58;101894.50;;;5.97;66.80
38786;BME280;24535;45.508;12.252;2023-02-04T05:28:24;101890.13;;;5.98;66.63
38786;BME280;24535;45.508;12.252;2023-02-04T05:30:49;101912.63;;;6.03;66.51
38786;BME280;24535;45.508;12.252;2023-02-04T05:33:15;101929.00;;;6.10;66.99
38786;BME280;24535;45.508;12.252;2023-02-04T05:35:41;101924.47;;;6.15;66.73
38786;BME280;24535;45.508;12.252;2023-02-04T05:38:06;101926.16;;;6.17;65.94
38786;BME280;24535;45.508;12.252;2023-02-04T05:40:31;101937.47;;;6.18;66.17
38786;BME280;24535;45.508;12.252;2023-02-04T05:42:57;101937.53;;;6.16;65.96
38786;BME280;24535;45.508;12.252;2023-02-04T05:45:22;101923.69;;;6.13;65.69
38786;BME280;24535;45.508;12.252;2023-02-04T05:47:48;101943.91;;;6.08;65.83
38786;BME280;24535;45.508;12.252;2023-02-04T05:50:16;101937.63;;;6.13;66.27
38786;BME280;24535;45.508;12.252;2023-02-04T05:52:42;101921.00;;;6.16;66.18
38786;BME280;24535;45.508;12.252;2023-02-04T05:55:10;101918.47;;;6.11;65.51
38786;BME280;24535;45.508;12.252;2023-02-04T05:57:35;101926.25;;;6.14;66.23
38786;BME280;24535;45.508;12.252;2023-02-04T06:00:02;101922.84;;;6.12;66.29
38786;BME280;24535;45.508;12.252;2023-02-04T06:02:27;101898.44;;;6.12;65.83
38786;BME280;24535;45.508;12.252;2023-02-04T06:04:53;101891.53;;;6.09;65.78
38786;BME280;24535;45.508;12.252;2023-02-04T06:07:18;101927.22;;;6.12;66.28
38786;BME280;24535;45.508;12.252;2023-02-04T06:09:43;101918.38;;;6.16;66.35
38786;BME280;24535;45.508;12.252;2023-02-04T06:12:09;101923.63;;;6.14;65.93
38786;BME280;24535;45.508;12.252;2023-02-04T06:14:35;101912.41;;;6.11;65.94
38786;BME280;24535;45.508;12.252;2023-02-04T06:17:00;101914.25;;;6.07;65.48
38786;BME280;24535;45.508;12.252;2023-02-04T06:19:26;101939.59;;;6.05;65.52
38786;BME280;24535;45.508;12.252;2023-02-04T06:21:51;101937.53;;;6.16;66.45
38786;BME280;24535;45.508;12.252;2023-02-04T06:24:17;101909.47;;;6.22;66.17
38786;BME280;24535;45.508;12.252;2023-02-04T06:26:42;101913.22;;;6.13;65.43
38786;BME280;24535;45.508;12.252;2023-02-04T06:29:08;101941.16;;;6.11;65.26
38786;BME280;24535;45.508;12.252;2023-02-04T06:31:33;101946.38;;;6.12;65.85
38786;BME280;24535;45.508;12.252;2023-02-04T06:34:01;101935.06;;;6.12;65.80
38786;BME280;24535;45.508;12.252;2023-02-04T06:36:27;101927.22;;;6.12;65.54
38786;BME280;24535;45.508;12.252;2023-02-04T06:38:53;101921.16;;;6.10;65.68
38786;BME280;24535;45.508;12.252;2023-02-04T06:41:22;101942.00;;;6.13;65.50
38786;BME280;24535;45.508;12.252;2023-02-04T06:43:47;101952.53;;;6.10;66.09
38786;BME280;24535;45.508;12.252;2023-02-04T06:46:13;101966.34;;;6.15;66.26
38786;BME280;24535;45.508;12.252;2023-02-04T06:48:38;101955.94;;;6.13;65.57
38786;BME280;24535;45.508;12.252;2023-02-04T06:51:04;101955.72;;;6.21;66.36
38786;BME280;24535;45.508;12.252;2023-02-04T06:53:29;101966.94;;;6.25;65.84
38786;BME280;24535;45.508;12.252;2023-02-04T06:55:55;101977.34;;;6.26;66.05
38786;BME280;24535;45.508;12.252;2023-02-04T06:58:20;101975.72;;;6.22;65.38
38786;BME280;24535;45.508;12.252;2023-02-04T07:00:46;101963.66;;;6.18;65.29
38786;BME280;24535;45.508;12.252;2023-02-04T07:03:11;101953.47;;;6.07;65.22
38786;BME280;24535;45.508;12.252;2023-02-04T07:05:37;101937.03;;;6.04;65.36
38786;BME280;24535;45.508;12.252;2023-02-04T07:08:02;101945.69;;;6.06;65.74
38786;BME280;24535;45.508;12.252;2023-02-04T07:10:28;101953.44;;;6.09;66.01
38786;BME280;24535;45.508;12.252;2023-02-04T07:12:53;101960.31;;;6.13;66.53
38786;BME280;24535;45.508;12.252;2023-02-04T07:15:19;101961.03;;;6.18;66.60
38786;BME280;24535;45.508;12.252;2023-02-04T07:17:45;101964.47;;;6.20;66.22
38786;BME280;24535;45.508;12.252;2023-02-04T07:20:10;101965.31;;;6.21;65.94
38786;BME280;24535;45.508;12.252;2023-02-04T07:22:36;101978.28;;;6.25;65.88
38786;BME280;24535;45.508;12.252;2023-02-04T07:25:02;101988.59;;;6.30;66.24
38786;BME280;24535;45.508;12.252;2023-02-04T07:27:28;101995.31;;;6.38;66.20
38786;BME280;24535;45.508;12.252;2023-02-04T07:29:53;101981.25;;;6.42;66.33
38786;BME280;24535;45.508;12.252;2023-02-04T07:32:19;101980.19;;;6.48;66.17
38786;BME280;24535;45.508;12.252;2023-02-04T07:34:44;101992.34;;;6.51;65.62
38786;BME280;24535;45.508;12.252;2023-02-04T07:37:10;101998.25;;;6.57;66.10
38786;BME280;24535;45.508;12.252;2023-02-04T07:39:35;101999.06;;;6.59;65.86
38786;BME280;24535;45.508;12.252;2023-02-04T07:42:01;101975.56;;;6.58;65.59
38786;BME280;24535;45.508;12.252;2023-02-04T07:44:27;101973.66;;;6.63;65.86
38786;BME280;24535;45.508;12.252;2023-02-04T07:46:52;101995.44;;;6.63;65.63
38786;BME280;24535;45.508;12.252;2023-02-04T07:49:18;102010.28;;;6.64;65.48
38786;BME280;24535;45.508;12.252;2023-02-04T07:51:43;102036.19;;;6.74;65.81
38786;BME280;24535;45.508;12.252;2023-02-04T07:54:09;102037.09;;;6.73;65.84
38786;BME280;24535;45.508;12.252;2023-02-04T07:56:34;102029.22;;;6.73;65.42
38786;BME280;24535;45.508;12.252;2023-02-04T07:59:00;102022.88;;;6.80;65.85
38786;BME280;24535;45.508;12.252;2023-02-04T08:01:25;102009.66;;;6.84;66.09
38786;BME280;24535;45.508;12.252;2023-02-04T08:03:51;102000.94;;;6.84;65.64
38786;BME280;24535;45.508;12.252;2023-02-04T08:06:16;101998.22;;;6.87;65.88
38786;BME280;24535;45.508;12.252;2023-02-04T08:08:42;102005.03;;;6.92;65.86
38786;BME280;24535;45.508;12.252;2023-02-04T08:11:08;102001.38;;;6.98;66.19
38786;BME280;24535;45.508;12.252;2023-02-04T08:13:33;101990.81;;;7.01;65.49
38786;BME280;24535;45.508;12.252;2023-02-04T08:15:59;101989.06;;;7.00;65.47
38786;BME280;24535;45.508;12.252;2023-02-04T08:18:24;102014.22;;;7.06;65.75
38786;BME280;24535;45.508;12.252;2023-02-04T08:20:50;102018.25;;;7.16;66.62
38786;BME280;24535;45.508;12.252;2023-02-04T08:23:15;102004.16;;;7.20;65.94
38786;BME280;24535;45.508;12.252;2023-02-04T08:25:41;102004.97;;;7.22;66.26
38786;BME280;24535;45.508;12.252;2023-02-04T08:28:07;102028.25;;;7.31;66.63
38786;BME280;24535;45.508;12.252;2023-02-04T08:30:32;102023.56;;;7.41;66.28
38786;BME280;24535;45.508;12.252;2023-02-04T08:32:57;102005.72;;;7.52;67.03
38786;BME280;24535;45.508;12.252;2023-02-04T08:35:23;101999.31;;;7.61;66.78
38786;BME280;24535;45.508;12.252;2023-02-04T08:37:48;102032.13;;;7.73;66.13
38786;BME280;24535;45.508;12.252;2023-02-04T08:40:14;102028.31;;;7.81;66.28
38786;BME280;24535;45.508;12.252;2023-02-04T08:42:39;102021.78;;;7.93;66.53
38786;BME280;24535;45.508;12.252;2023-02-04T08:45:05;102011.00;;;8.02;66.31
38786;BME280;24535;45.508;12.252;2023-02-04T08:47:31;102023.72;;;8.13;66.76
38786;BME280;24535;45.508;12.252;2023-02-04T08:49:56;102036.34;;;8.27;67.13
38786;BME280;24535;45.508;12.252;2023-02-04T08:52:22;102033.25;;;8.40;67.04
38786;BME280;24535;45.508;12.252;2023-02-04T08:54:48;102030.16;;;8.53;66.96
38786;BME280;24535;45.508;12.252;2023-02-04T08:57:13;102026.22;;;8.64;66.55
38786;BME280;24535;45.508;12.252;2023-02-04T08:59:42;102024.03;;;8.76;66.85
38786;BME280;24535;45.508;12.252;2023-02-04T09:02:09;102014.88;;;8.86;66.81
38786;BME280;24535;45.508;12.252;2023-02-04T09:04:34;102017.94;;;8.97;66.29
38786;BME280;24535;45.508;12.252;2023-02-04T09:07:00;102011.53;;;9.04;66.61
38786;BME280;24535;45.508;12.252;2023-02-04T09:09:25;102024.97;;;9.19;66.56
38786;BME280;24535;45.508;12.252;2023-02-04T09:11:51;102024.53;;;9.29;66.86
38786;BME280;24535;45.508;12.252;2023-02-04T09:14:16;102005.56;;;9.43;66.61
38786;BME280;24535;45.508;12.252;2023-02-04T09:16:42;102005.19;;;9.52;66.45
38786;BME280;24535;45.508;12.252;2023-02-04T09:19:07;102018.72;;;9.63;66.68
38786;BME280;24535;45.508;12.252;2023-02-04T09:21:36;102019.13;;;9.75;66.51
38786;BME280;24535;45.508;12.252;2023-02-04T09:24:02;102029.13;;;9.87;65.96
38786;BME280;24535;45.508;12.252;2023-02-04T09:26:27;102022.47;;;9.99;65.22
38786;BME280;24535;45.508;12.252;2023-02-04T09:28:53;102018.53;;;10.09;64.76
38786;BME280;24535;45.508;12.252;2023-02-04T09:31:18;102017.28;;;10.18;64.62
38786;BME280;24535;45.508;12.252;2023-02-04T09:33:44;102006.34;;;10.27;64.63
38786;BME280;24535;45.508;12.252;2023-02-04T09:36:09;102025.28;;;10.35;64.01
38786;BME280;24535;45.508;12.252;2023-02-04T09:38:35;102035.53;;;10.41;64.71
38786;BME280;24535;45.508;12.252;2023-02-04T09:41:06;102022.09;;;10.47;64.08
38786;BME280;24535;45.508;12.252;2023-02-04T09:43:34;101991.06;;;10.54;63.77
38786;BME280;24535;45.508;12.252;2023-02-04T09:46:01;102016.19;;;10.61;63.33
38786;BME280;24535;45.508;12.252;2023-02-04T09:48:27;102043.19;;;10.66;63.64
38786;BME280;24535;45.508;12.252;2023-02-04T09:51:04;102038.34;;;10.76;63.21
38786;BME280;24535;45.508;12.252;2023-02-04T09:53:31;102001.94;;;10.84;62.64
38786;BME280;24535;45.508;12.252;2023-02-04T09:55:57;102014.66;;;10.93;63.26
38786;BME280;24535;45.508;12.252;2023-02-04T09:58:23;102027.50;;;11.01;62.56
38786;BME280;24535;45.508;12.252;2023-02-04T10:01:23;101998.91;;;11.10;60.43
38786;BME280;24535;45.508;12.252;2023-02-04T10:03:49;101989.97;;;11.13;62.44
38786;BME280;24535;45.508;12.252;2023-02-04T10:06:20;102044.38;;;11.16;61.77
38786;BME280;24535;45.508;12.252;2023-02-04T10:08:47;102047.94;;;11.14;62.54
38786;BME280;24535;45.508;12.252;2023-02-04T10:11:14;102016.06;;;11.19;61.95
38786;BME280;24535;45.508;12.252;2023-02-04T10:13:43;101959.84;;;11.19;61.37
38786;BME280;24535;45.508;12.252;2023-02-04T10:16:32;101936.72;;;11.24;60.42
38786;BME280;24535;45.508;12.252;2023-02-04T10:19:05;102003.28;;;11.29;61.34
38786;BME280;24535;45.508;12.252;2023-02-04T10:21:33;102057.59;;;11.33;61.16
38786;BME280;24535;45.508;12.252;2023-02-04T10:24:03;102029.19;;;11.38;62.07
38786;BME280;24535;45.508;12.252;2023-02-04T10:26:32;101983.81;;;11.49;62.13
38786;BME280;24535;45.508;12.252;2023-02-04T10:29:05;101958.81;;;11.56;61.79
38786;BME280;24535;45.508;12.252;2023-02-04T10:31:36;101926.81;;;11.62;60.92
38786;BME280;24535;45.508;12.252;2023-02-04T10:36:34;102006.22;;;11.75;61.82
38786;BME280;24535;45.508;12.252;2023-02-04T10:39:05;101996.09;;;11.84;61.14
38786;BME280;24535;45.508;12.252;2023-02-04T10:41:31;101962.38;;;11.90;60.48
38786;BME280;24535;45.508;12.252;2023-02-04T10:44:08;101938.34;;;11.94;59.76
38786;BME280;24535;45.508;12.252;2023-02-04T10:46:34;101985.75;;;11.97;58.94
38786;BME280;24535;45.508;12.252;2023-02-04T10:49:02;102013.59;;;12.03;59.69
38786;BME280;24535;45.508;12.252;2023-02-04T10:51:27;101996.00;;;12.03;59.37
38786;BME280;24535;45.508;12.252;2023-02-04T10:53:53;101963.34;;;12.04;58.59
38786;BME280;24535;45.508;12.252;2023-02-04T10:56:37;101960.78;;;12.03;58.52
38786;BME280;24535;45.508;12.252;2023-02-04T10:59:03;101981.91;;;12.03;58.99
38786;BME280;24535;45.508;12.252;2023-02-04T11:01:29;101990.00;;;12.00;57.83
38786;BME280;24535;45.508;12.252;2023-02-04T11:03:55;102010.28;;;11.99;58.38
38786;BME280;24535;45.508;12.252;2023-02-04T11:06:23;102002.38;;;11.99;59.01
38786;BME280;24535;45.508;12.252;2023-02-04T11:08:49;101989.22;;;11.98;58.49
38786;BME280;24535;45.508;12.252;2023-02-04T11:26:50;102018.28;;;11.98;60.05
38786;BME280;24535;45.508;12.252;2023-02-04T11:39:37;102004.06;;;12.00;61.38
38786;BME280;24535;45.508;12.252;2023-02-04T11:45:19;102040.34;;;11.97;62.04
38786;BME280;24535;45.508;12.252;2023-02-04T11:47:49;102041.97;;;11.99;61.72
38786;BME280;24535;45.508;12.252;2023-02-04T11:52:46;102030.53;;;11.99;61.25
38786;BME280;24535;45.508;12.252;2023-02-04T11:55:12;102038.56;;;11.97;61.47
38786;BME280;24535;45.508;12.252;2023-02-04T11:57:39;102028.09;;;11.96;61.43
38786;BME280;24535;45.508;12.252;2023-02-04T12:00:11;102017.56;;;11.94;61.98
38786;BME280;24535;45.508;12.252;2023-02-04T12:02:43;102036.75;;;11.98;61.09
38786;BME280;24535;45.508;12.252;2023-02-04T12:05:17;102048.41;;;11.94;62.12
38786;BME280;24535;45.508;12.252;2023-02-04T12:07:45;102041.28;;;11.96;61.81
38786;BME280;24535;45.508;12.252;2023-02-04T12:10:23;102028.00;;;11.97;62.53
38786;BME280;24535;45.508;12.252;2023-02-04T12:12:54;102032.41;;;11.97;62.04
38786;BME280;24535;45.508;12.252;2023-02-04T12:15:33;102053.69;;;11.94;62.13
38786;BME280;24535;45.508;12.252;2023-02-04T12:18:04;102053.00;;;11.90;62.42
38786;BME280;24535;45.508;12.252;2023-02-04T12:20:32;102027.53;;;11.89;62.97
38786;BME280;24535;45.508;12.252;2023-02-04T12:22:57;102033.91;;;11.85;63.15
38786;BME280;24535;45.508;12.252;2023-02-04T12:25:23;102037.47;;;11.84;63.60
38786;BME280;24535;45.508;12.252;2023-02-04T12:27:51;102051.63;;;11.83;63.77
38786;BME280;24535;45.508;12.252;2023-02-04T12:30:18;102057.78;;;11.82;63.74
38786;BME280;24535;45.508;12.252;2023-02-04T12:32:44;102044.91;;;11.76;63.77
38786;BME280;24535;45.508;12.252;2023-02-04T12:35:10;102023.84;;;11.74;64.05
38786;BME280;24535;45.508;12.252;2023-02-04T12:37:35;102016.97;;;11.72;64.35
38786;BME280;24535;45.508;12.252;2023-02-04T12:40:01;102034.66;;;11.70;64.51
38786;BME280;24535;45.508;12.252;2023-02-04T12:42:26;102056.63;;;11.70;64.95
38786;BME280;24535;45.508;12.252;2023-02-04T12:44:52;102070.75;;;11.69;64.18
38786;BME280;24535;45.508;12.252;2023-02-04T12:47:18;102049.63;;;11.69;65.36
38786;BME280;24535;45.508;12.252;2023-02-04T12:49:43;102044.25;;;11.71;65.36
38786;BME280;24535;45.508;12.252;2023-02-04T12:52:10;102032.94;;;11.69;65.44
38786;BME280;24535;45.508;12.252;2023-02-04T12:54:36;102051.50;;;11.67;65.54
38786;BME280;24535;45.508;12.252;2023-02-04T12:57:01;102069.09;;;11.67;65.13
38786;BME280;24535;45.508;12.252;2023-02-04T12:59:28;102082.41;;;11.65;65.59
38786;BME280;24535;45.508;12.252;2023-02-04T13:01:56;102051.50;;;11.67;65.50
38786;BME280;24535;45.508;12.252;2023-02-04T13:04:22;102036.44;;;11.69;64.72
38786;BME280;24535;45.508;12.252;2023-02-04T13:06:48;102058.41;;;11.70;65.05
38786;BME280;24535;45.508;12.252;2023-02-04T13:09:13;102067.16;;;11.70;65.01
38786;BME280;24535;45.508;12.252;2023-02-04T13:11:38;102082.00;;;11.73;65.56
38786;BME280;24535;45.508;12.252;2023-02-04T13:14:04;102081.88;;;11.76;66.28
38786;BME280;24535;45.508;12.252;2023-02-04T13:16:29;102095.69;;;11.81;66.63
38786;BME280;24535;45.508;12.252;2023-02-04T13:18:55;102094.72;;;11.83;66.06
38786;BME280;24535;45.508;12.252;2023-02-04T13:21:20;102095.56;;;11.84;66.59